sensor_id;sensor_type;location;lat;lon;timestamp;temperature;humidity
30280;DHT22;17097;50.916;5.344;2022-12-18T00:01:37;-2.40;99.90
30280;DHT22;17097;50.916;5.344;2022-12-18T00:04:05;-2.30;99.90
30280;DHT22;17097;50.916;5.344;2022-12-18T00:06:32;-2.30;99.90
30280;DHT22;17097;50.916;5.344;2022-12-18T00:09:02;-2.30;99.90
30280;DHT22;17097;50.916;5.344;2022-12-18T00:11:29;-2.40;99.90
30280;DHT22;17097;50.916;5.344;2022-12-18T00:13:58;-2.40;99.90
30280;DHT22;17097;50.916;5.344;2022-12-18T00:16:26;-2.50;99.90
30280;DHT22;17097;50.916;5.344;2022-12-18T00:18:54;-2.60;99.90
30280;DHT22;17097;50.916;5.344;2022-12-18T00:21:21;-2.60;99.90
30280;DHT22;17097;50.916;5.344;2022-12-18T00:23:48;-2.50;99.90
30280;DHT22;17097;50.916;5.344;2022-12-18T00:26:17;-2.50;99.90
30280;DHT22;17097;50.916;5.344;2022-12-18T00:28:44;-2.60;99.90
30280;DHT22;17097;50.916;5.344;2022-12-18T00:31:13;-2.70;99.90
30280;DHT22;17097;50.916;5.344;2022-12-18T00:33:40;-2.70;99.90
30280;DHT22;17097;50.916;5.344;2022-12-18T00:36:10;-2.80;99.90
30280;DHT22;17097;50.916;5.344;2022-12-18T00:38:37;-2.90;99.90
30280;DHT22;17097;50.916;5.344;2022-12-18T00:41:03;-3.00;99.90
30280;DHT22;17097;50.916;5.344;2022-12-18T00:43:29;-3.10;99.90
30280;DHT22;17097;50.916;5.344;2022-12-18T00:45:55;-3.00;99.90
30280;DHT22;17097;50.916;5.344;2022-12-18T00:48:21;-2.90;99.90
30280;DHT22;17097;50.916;5.344;2022-12-18T00:50:48;-2.70;99.90
30280;DHT22;17097;50.916;5.344;2022-12-18T00:53:14;-2.70;99.90
30280;DHT22;17097;50.916;5.344;2022-12-18T00:55:40;-2.60;99.90
30280;DHT22;17097;50.916;5.344;2022-12-18T00:58:07;-2.60;99.90
30280;DHT22;17097;50.916;5.344;2022-12-18T01:00:33;-2.70;99.90
30280;DHT22;17097;50.916;5.344;2022-12-18T01:02:59;-2.90;99.90
30280;DHT22;17097;50.916;5.344;2022-12-18T01:05:25;-3.00;99.90
30280;DHT22;17097;50.916;5.344;2022-12-18T01:07:51;-3.10;99.90
30280;DHT22;17097;50.916;5.344;2022-12-18T01:10:17;-3.00;99.90
30280;DHT22;17097;50.916;5.344;2022-12-18T01:12:43;-3.10;99.90
30280;DHT22;17097;50.916;5.344;2022-12-18T01:15:10;-3.10;99.90
30280;DHT22;17097;50.916;5.344;2022-12-18T01:17:37;-3.20;99.90
30280;DHT22;17097;50.916;5.344;2022-12-18T01:20:03;-3.20;99.90
30280;DHT22;17097;50.916;5.344;2022-12-18T01:22:29;-3.20;99.90
30280;DHT22;17097;50.916;5.344;2022-12-18T01:24:54;-3.20;99.90
30280;DHT22;17097;50.916;5.344;2022-12-18T01:27:23;-3.20;99.90
30280;DHT22;17097;50.916;5.344;2022-12-18T01:29:49;-3.30;99.90
30280;DHT22;17097;50.916;5.344;2022-12-18T01:32:15;-3.30;99.90
30280;DHT22;17097;50.916;5.344;2022-12-18T01:34:41;-3.40;99.90
30280;DHT22;17097;50.916;5.344;2022-12-18T01:37:07;-3.50;99.90
30280;DHT22;17097;50.916;5.344;2022-12-18T01:39:33;-3.50;99.90
30280;DHT22;17097;50.916;5.344;2022-12-18T01:42:09;-3.40;99.90
30280;DHT22;17097;50.916;5.344;2022-12-18T01:47:30;-3.30;99.90
30280;DHT22;17097;50.916;5.344;2022-12-18T01:49:59;-3.20;99.90
30280;DHT22;17097;50.916;5.344;2022-12-18T01:52:30;-3.20;99.90
30280;DHT22;17097;50.916;5.344;2022-12-18T01:54:57;-3.30;99.90
30280;DHT22;17097;50.916;5.344;2022-12-18T01:57:25;-3.30;99.90
30280;DHT22;17097;50.916;5.344;2022-12-18T01:59:53;-3.40;99.90
30280;DHT22;17097;50.916;5.344;2022-12-18T02:02:22;-3.40;99.90
30280;DHT22;17097;50.916;5.344;2022-12-18T02:04:48;-3.40;99.90
30280;DHT22;17097;50.916;5.344;2022-12-18T02:10:24;-3.50;99.90
30280;DHT22;17097;50.916;5.344;2022-12-18T02:15:48;-3.40;99.90
30280;DHT22;17097;50.916;5.344;2022-12-18T02:18:21;-3.40;99.90
30280;DHT22;17097;50.916;5.344;2022-12-18T02:20:55;-3.50;99.90
30280;DHT22;17097;50.916;5.344;2022-12-18T02:28:59;-3.50;99.90
30280;DHT22;17097;50.916;5.344;2022-12-18T02:31:28;-3.50;99.90
30280;DHT22;17097;50.916;5.344;2022-12-18T02:34:00;-3.60;99.90
30280;DHT22;17097;50.916;5.344;2022-12-18T02:36:28;-3.60;99.90
30280;DHT22;17097;50.916;5.344;2022-12-18T02:38:56;-3.60;99.90
30280;DHT22;17097;50.916;5.344;2022-12-18T02:41:25;-3.60;99.90
30280;DHT22;17097;50.916;5.344;2022-12-18T02:43:57;-3.50;99.90
30280;DHT22;17097;50.916;5.344;2022-12-18T02:46:28;-3.50;99.90
30280;DHT22;17097;50.916;5.344;2022-12-18T02:52:05;-3.60;99.90
30280;DHT22;17097;50.916;5.344;2022-12-18T02:57:13;-3.70;99.90
30280;DHT22;17097;50.916;5.344;2022-12-18T02:59:55;-3.70;99.90
30280;DHT22;17097;50.916;5.344;2022-12-18T03:02:47;-3.70;99.90
30280;DHT22;17097;50.916;5.344;2022-12-18T03:07:58;-3.80;99.90
30280;DHT22;17097;50.916;5.344;2022-12-18T03:10:33;-3.80;99.90
30280;DHT22;17097;50.916;5.344;2022-12-18T03:13:04;-3.80;99.90
30280;DHT22;17097;50.916;5.344;2022-12-18T03:15:36;-3.80;99.90
30280;DHT22;17097;50.916;5.344;2022-12-18T03:18:33;-3.90;99.90
30280;DHT22;17097;50.916;5.344;2022-12-18T03:21:02;-3.90;99.90
30280;DHT22;17097;50.916;5.344;2022-12-18T03:23:34;-3.90;99.90
30280;DHT22;17097;50.916;5.344;2022-12-18T03:26:05;-3.90;99.90
30280;DHT22;17097;50.916;5.344;2022-12-18T03:28:35;-3.90;99.90
30280;DHT22;17097;50.916;5.344;2022-12-18T03:31:04;-4.00;99.90
30280;DHT22;17097;50.916;5.344;2022-12-18T03:36:02;-3.90;99.90
30280;DHT22;17097;50.916;5.344;2022-12-18T03:38:28;-4.00;99.90
30280;DHT22;17097;50.916;5.344;2022-12-18T03:49:23;-3.80;99.90
30280;DHT22;17097;50.916;5.344;2022-12-18T03:51:57;-3.80;99.90
30280;DHT22;17097;50.916;5.344;2022-12-18T03:54:26;-3.90;99.90
30280;DHT22;17097;50.916;5.344;2022-12-18T03:57:00;-4.00;99.90
30280;DHT22;17097;50.916;5.344;2022-12-18T03:59:28;-4.00;99.90
30280;DHT22;17097;50.916;5.344;2022-12-18T04:01:56;-4.00;99.90
30280;DHT22;17097;50.916;5.344;2022-12-18T04:04:24;-4.10;99.90
30280;DHT22;17097;50.916;5.344;2022-12-18T04:06:51;-4.10;99.90
30280;DHT22;17097;50.916;5.344;2022-12-18T04:09:18;-4.10;99.90
30280;DHT22;17097;50.916;5.344;2022-12-18T04:11:46;-4.10;99.90
30280;DHT22;17097;50.916;5.344;2022-12-18T04:14:14;-4.00;99.90
30280;DHT22;17097;50.916;5.344;2022-12-18T04:16:40;-4.00;99.90
30280;DHT22;17097;50.916;5.344;2022-12-18T04:19:06;-4.00;99.90
30280;DHT22;17097;50.916;5.344;2022-12-18T04:21:32;-4.00;99.90
30280;DHT22;17097;50.916;5.344;2022-12-18T04:23:58;-4.00;99.90
30280;DHT22;17097;50.916;5.344;2022-12-18T04:26:27;-4.00;99.90
30280;DHT22;17097;50.916;5.344;2022-12-18T04:28:53;-4.00;99.90
30280;DHT22;17097;50.916;5.344;2022-12-18T04:31:18;-3.90;99.90
30280;DHT22;17097;50.916;5.344;2022-12-18T04:33:47;-3.90;99.90
30280;DHT22;17097;50.916;5.344;2022-12-18T04:36:13;-3.90;99.90
30280;DHT22;17097;50.916;5.344;2022-12-18T04:38:39;-3.90;99.90
30280;DHT22;17097;50.916;5.344;2022-12-18T04:41:05;-4.00;99.90
30280;DHT22;17097;50.916;5.344;2022-12-18T04:43:31;-4.00;99.90
30280;DHT22;17097;50.916;5.344;2022-12-18T04:46:05;-4.00;99.90
30280;DHT22;17097;50.916;5.344;2022-12-18T04:48:32;-3.90;99.90
30280;DHT22;17097;50.916;5.344;2022-12-18T04:50:58;-3.90;99.90
30280;DHT22;17097;50.916;5.344;2022-12-18T04:53:24;-3.90;99.90
30280;DHT22;17097;50.916;5.344;2022-12-18T04:55:50;-4.00;99.90
30280;DHT22;17097;50.916;5.344;2022-12-18T04:58:17;-4.00;99.90
30280;DHT22;17097;50.916;5.344;2022-12-18T05:00:43;-4.00;99.90
30280;DHT22;17097;50.916;5.344;2022-12-18T05:03:08;-4.10;99.90
30280;DHT22;17097;50.916;5.344;2022-12-18T05:05:35;-4.20;99.90
30280;DHT22;17097;50.916;5.344;2022-12-18T05:08:03;-4.30;99.90
30280;DHT22;17097;50.916;5.344;2022-12-18T05:10:29;-4.30;99.90
30280;DHT22;17097;50.916;5.344;2022-12-18T05:12:55;-4.40;99.90
30280;DHT22;17097;50.916;5.344;2022-12-18T05:15:33;-4.40;99.90
30280;DHT22;17097;50.916;5.344;2022-12-18T05:18:00;-4.40;99.90
30280;DHT22;17097;50.916;5.344;2022-12-18T05:20:27;-4.40;99.90
30280;DHT22;17097;50.916;5.344;2022-12-18T05:22:53;-4.40;99.90
30280;DHT22;17097;50.916;5.344;2022-12-18T05:25:20;-4.50;99.90
30280;DHT22;17097;50.916;5.344;2022-12-18T05:27:48;-4.50;99.90
30280;DHT22;17097;50.916;5.344;2022-12-18T05:30:15;-4.50;99.90
30280;DHT22;17097;50.916;5.344;2022-12-18T05:32:41;-4.40;99.90
30280;DHT22;17097;50.916;5.344;2022-12-18T05:35:10;-4.40;99.90
30280;DHT22;17097;50.916;5.344;2022-12-18T05:37:36;-4.40;99.90
30280;DHT22;17097;50.916;5.344;2022-12-18T05:40:04;-4.40;99.90
30280;DHT22;17097;50.916;5.344;2022-12-18T05:42:30;-4.40;99.90
30280;DHT22;17097;50.916;5.344;2022-12-18T05:44:56;-4.40;99.90
30280;DHT22;17097;50.916;5.344;2022-12-18T05:47:21;-4.40;99.90
30280;DHT22;17097;50.916;5.344;2022-12-18T05:49:47;-4.30;99.90
30280;DHT22;17097;50.916;5.344;2022-12-18T05:52:13;-4.20;99.90
30280;DHT22;17097;50.916;5.344;2022-12-18T05:54:41;-4.20;99.90
30280;DHT22;17097;50.916;5.344;2022-12-18T05:57:07;-4.40;99.90
30280;DHT22;17097;50.916;5.344;2022-12-18T05:59:32;-4.50;99.90
30280;DHT22;17097;50.916;5.344;2022-12-18T06:02:00;-4.50;99.90
30280;DHT22;17097;50.916;5.344;2022-12-18T06:04:26;-4.50;99.90
30280;DHT22;17097;50.916;5.344;2022-12-18T06:06:52;-4.50;99.90
30280;DHT22;17097;50.916;5.344;2022-12-18T06:09:18;-4.60;99.90
30280;DHT22;17097;50.916;5.344;2022-12-18T06:11:44;-4.50;99.90
30280;DHT22;17097;50.916;5.344;2022-12-18T06:14:10;-4.50;99.90
30280;DHT22;17097;50.916;5.344;2022-12-18T06:16:35;-4.50;99.90
30280;DHT22;17097;50.916;5.344;2022-12-18T06:19:03;-4.50;99.90
30280;DHT22;17097;50.916;5.344;2022-12-18T06:21:30;-4.50;99.90
30280;DHT22;17097;50.916;5.344;2022-12-18T06:23:56;-4.50;99.90
30280;DHT22;17097;50.916;5.344;2022-12-18T06:26:22;-4.50;99.90
30280;DHT22;17097;50.916;5.344;2022-12-18T06:28:48;-4.40;99.90
30280;DHT22;17097;50.916;5.344;2022-12-18T06:31:14;-4.30;99.90
30280;DHT22;17097;50.916;5.344;2022-12-18T06:33:40;-4.20;99.90
30280;DHT22;17097;50.916;5.344;2022-12-18T06:36:12;-4.20;99.90
30280;DHT22;17097;50.916;5.344;2022-12-18T06:38:40;-4.00;99.90
30280;DHT22;17097;50.916;5.344;2022-12-18T06:41:16;-4.20;99.90
30280;DHT22;17097;50.916;5.344;2022-12-18T06:43:43;-4.00;99.90
30280;DHT22;17097;50.916;5.344;2022-12-18T06:46:09;-4.00;99.90
30280;DHT22;17097;50.916;5.344;2022-12-18T06:48:37;-4.00;99.90
30280;DHT22;17097;50.916;5.344;2022-12-18T06:51:03;-4.00;99.90
30280;DHT22;17097;50.916;5.344;2022-12-18T06:53:29;-3.90;99.90
30280;DHT22;17097;50.916;5.344;2022-12-18T06:56:06;-4.00;99.90
30280;DHT22;17097;50.916;5.344;2022-12-18T06:58:33;-4.00;99.90
30280;DHT22;17097;50.916;5.344;2022-12-18T07:01:04;-3.90;99.90
30280;DHT22;17097;50.916;5.344;2022-12-18T07:03:30;-4.00;99.90
30280;DHT22;17097;50.916;5.344;2022-12-18T07:05:56;-4.00;99.90
30280;DHT22;17097;50.916;5.344;2022-12-18T07:08:22;-4.10;99.90
30280;DHT22;17097;50.916;5.344;2022-12-18T07:10:48;-4.10;99.90
30280;DHT22;17097;50.916;5.344;2022-12-18T07:13:15;-3.80;99.90
30280;DHT22;17097;50.916;5.344;2022-12-18T07:15:41;-3.80;99.90
30280;DHT22;17097;50.916;5.344;2022-12-18T07:18:07;-3.90;99.90
30280;DHT22;17097;50.916;5.344;2022-12-18T07:20:33;-3.90;99.90
30280;DHT22;17097;50.916;5.344;2022-12-18T07:23:02;-4.00;99.90
30280;DHT22;17097;50.916;5.344;2022-12-18T07:25:35;-4.10;99.90
30280;DHT22;17097;50.916;5.344;2022-12-18T07:28:02;-4.00;99.90
30280;DHT22;17097;50.916;5.344;2022-12-18T07:30:31;-3.90;99.90
30280;DHT22;17097;50.916;5.344;2022-12-18T07:32:56;-3.90;99.90
30280;DHT22;17097;50.916;5.344;2022-12-18T07:35:22;-3.80;99.90
30280;DHT22;17097;50.916;5.344;2022-12-18T07:37:47;-3.80;99.90
30280;DHT22;17097;50.916;5.344;2022-12-18T07:40:14;-3.70;99.90
30280;DHT22;17097;50.916;5.344;2022-12-18T07:42:40;-3.70;99.90
30280;DHT22;17097;50.916;5.344;2022-12-18T07:45:07;-3.70;99.90
30280;DHT22;17097;50.916;5.344;2022-12-18T07:47:36;-3.70;99.90
30280;DHT22;17097;50.916;5.344;2022-12-18T07:50:03;-3.60;99.90
30280;DHT22;17097;50.916;5.344;2022-12-18T07:52:28;-3.50;99.90
30280;DHT22;17097;50.916;5.344;2022-12-18T07:54:54;-3.50;99.90
30280;DHT22;17097;50.916;5.344;2022-12-18T07:57:21;-3.40;99.90
30280;DHT22;17097;50.916;5.344;2022-12-18T07:59:47;-3.40;99.90
30280;DHT22;17097;50.916;5.344;2022-12-18T08:02:12;-3.40;99.90
30280;DHT22;17097;50.916;5.344;2022-12-18T08:04:38;-3.50;99.90
30280;DHT22;17097;50.916;5.344;2022-12-18T08:07:04;-3.50;99.90
30280;DHT22;17097;50.916;5.344;2022-12-18T08:09:29;-3.50;99.90
30280;DHT22;17097;50.916;5.344;2022-12-18T08:11:55;-3.50;99.90
30280;DHT22;17097;50.916;5.344;2022-12-18T08:14:21;-3.40;99.90
30280;DHT22;17097;50.916;5.344;2022-12-18T08:16:47;-3.30;99.90
30280;DHT22;17097;50.916;5.344;2022-12-18T08:19:13;-3.20;99.90
30280;DHT22;17097;50.916;5.344;2022-12-18T08:21:39;-2.90;99.90
30280;DHT22;17097;50.916;5.344;2022-12-18T08:24:04;-2.60;99.90
30280;DHT22;17097;50.916;5.344;2022-12-18T08:26:31;-2.20;99.90
30280;DHT22;17097;50.916;5.344;2022-12-18T08:28:59;-1.90;99.90
30280;DHT22;17097;50.916;5.344;2022-12-18T08:31:28;-1.50;99.90
30280;DHT22;17097;50.916;5.344;2022-12-18T08:33:54;-1.20;99.90
30280;DHT22;17097;50.916;5.344;2022-12-18T08:36:22;-0.80;99.90
30280;DHT22;17097;50.916;5.344;2022-12-18T08:38:48;-0.60;99.90
30280;DHT22;17097;50.916;5.344;2022-12-18T08:41:15;-0.30;99.90
30280;DHT22;17097;50.916;5.344;2022-12-18T08:43:41;-0.20;99.90
30280;DHT22;17097;50.916;5.344;2022-12-18T08:46:35;-0.10;99.90
30280;DHT22;17097;50.916;5.344;2022-12-18T08:49:02;0.30;99.90
30280;DHT22;17097;50.916;5.344;2022-12-18T08:51:29;0.60;99.90
30280;DHT22;17097;50.916;5.344;2022-12-18T08:53:54;0.80;99.90
30280;DHT22;17097;50.916;5.344;2022-12-18T08:56:20;1.20;99.90
30280;DHT22;17097;50.916;5.344;2022-12-18T08:58:46;1.60;99.90
30280;DHT22;17097;50.916;5.344;2022-12-18T09:01:13;2.00;99.90
30280;DHT22;17097;50.916;5.344;2022-12-18T09:03:39;2.40;99.90
30280;DHT22;17097;50.916;5.344;2022-12-18T09:06:06;2.70;99.90
30280;DHT22;17097;50.916;5.344;2022-12-18T09:08:31;2.80;99.90
30280;DHT22;17097;50.916;5.344;2022-12-18T09:11:00;3.00;99.90
30280;DHT22;17097;50.916;5.344;2022-12-18T09:13:25;3.10;99.90
30280;DHT22;17097;50.916;5.344;2022-12-18T09:15:53;3.10;99.90
30280;DHT22;17097;50.916;5.344;2022-12-18T09:18:23;3.20;99.90
30280;DHT22;17097;50.916;5.344;2022-12-18T09:20:49;3.10;99.90
30280;DHT22;17097;50.916;5.344;2022-12-18T09:23:17;3.10;99.90
30280;DHT22;17097;50.916;5.344;2022-12-18T09:25:43;3.10;99.90
30280;DHT22;17097;50.916;5.344;2022-12-18T09:28:13;3.10;99.90
30280;DHT22;17097;50.916;5.344;2022-12-18T09:30:42;3.20;99.90
30280;DHT22;17097;50.916;5.344;2022-12-18T09:33:08;3.30;99.90
30280;DHT22;17097;50.916;5.344;2022-12-18T09:35:38;3.30;99.90
30280;DHT22;17097;50.916;5.344;2022-12-18T09:38:05;3.30;99.90
30280;DHT22;17097;50.916;5.344;2022-12-18T09:40:36;3.40;99.90
30280;DHT22;17097;50.916;5.344;2022-12-18T09:43:05;3.50;99.90
30280;DHT22;17097;50.916;5.344;2022-12-18T09:45:40;3.60;99.90
30280;DHT22;17097;50.916;5.344;2022-12-18T09:48:26;3.70;99.90
30280;DHT22;17097;50.916;5.344;2022-12-18T09:50:57;3.70;99.90
30280;DHT22;17097;50.916;5.344;2022-12-18T09:53:29;3.90;99.90
30280;DHT22;17097;50.916;5.344;2022-12-18T09:55:57;4.10;99.90
30280;DHT22;17097;50.916;5.344;2022-12-18T09:58:47;4.10;99.90
30280;DHT22;17097;50.916;5.344;2022-12-18T10:01:24;4.20;99.90
30280;DHT22;17097;50.916;5.344;2022-12-18T10:03:50;4.20;99.90
30280;DHT22;17097;50.916;5.344;2022-12-18T10:06:28;4.20;99.90
30280;DHT22;17097;50.916;5.344;2022-12-18T10:11:51;4.00;99.90
30280;DHT22;17097;50.916;5.344;2022-12-18T10:25:55;3.60;99.90
30280;DHT22;17097;50.916;5.344;2022-12-18T10:28:25;3.60;99.90
30280;DHT22;17097;50.916;5.344;2022-12-18T10:30:51;3.60;99.90
30280;DHT22;17097;50.916;5.344;2022-12-18T10:33:21;3.40;99.90
30280;DHT22;17097;50.916;5.344;2022-12-18T10:35:50;3.30;99.90
30280;DHT22;17097;50.916;5.344;2022-12-18T10:43:36;3.10;99.90
30280;DHT22;17097;50.916;5.344;2022-12-18T10:48:49;3.00;99.90
30280;DHT22;17097;50.916;5.344;2022-12-18T10:51:25;3.00;99.90
30280;DHT22;17097;50.916;5.344;2022-12-18T10:53:55;2.90;99.90
30280;DHT22;17097;50.916;5.344;2022-12-18T10:56:22;2.80;99.90
30280;DHT22;17097;50.916;5.344;2022-12-18T10:59:04;2.80;99.90
30280;DHT22;17097;50.916;5.344;2022-12-18T11:04:32;2.60;99.90
30280;DHT22;17097;50.916;5.344;2022-12-18T11:07:03;2.60;99.90
30280;DHT22;17097;50.916;5.344;2022-12-18T11:09:35;2.50;99.90
30280;DHT22;17097;50.916;5.344;2022-12-18T11:12:04;2.30;99.90
30280;DHT22;17097;50.916;5.344;2022-12-18T11:14:43;2.10;99.90
30280;DHT22;17097;50.916;5.344;2022-12-18T11:17:31;2.10;99.90
30280;DHT22;17097;50.916;5.344;2022-12-18T11:23:03;2.10;99.90
30280;DHT22;17097;50.916;5.344;2022-12-18T11:25:30;2.20;99.90
30280;DHT22;17097;50.916;5.344;2022-12-18T11:28:29;2.10;99.90
30280;DHT22;17097;50.916;5.344;2022-12-18T11:31:22;2.00;99.90
30280;DHT22;17097;50.916;5.344;2022-12-18T11:34:17;2.00;99.90
30280;DHT22;17097;50.916;5.344;2022-12-18T11:36:46;2.20;99.90
30280;DHT22;17097;50.916;5.344;2022-12-18T11:39:36;2.30;99.90
30280;DHT22;17097;50.916;5.344;2022-12-18T11:42:24;2.30;99.90
30280;DHT22;17097;50.916;5.344;2022-12-18T11:47:40;2.20;99.90
30280;DHT22;17097;50.916;5.344;2022-12-18T11:53:10;2.40;99.90
30280;DHT22;17097;50.916;5.344;2022-12-18T11:58:42;2.50;99.90
30280;DHT22;17097;50.916;5.344;2022-12-18T12:04:08;2.60;99.90
30280;DHT22;17097;50.916;5.344;2022-12-18T12:06:47;2.60;99.90
30280;DHT22;17097;50.916;5.344;2022-12-18T12:17:18;2.50;99.90
30280;DHT22;17097;50.916;5.344;2022-12-18T12:20:31;2.60;99.90
30280;DHT22;17097;50.916;5.344;2022-12-18T12:22:55;2.70;99.90
30280;DHT22;17097;50.916;5.344;2022-12-18T12:25:33;2.80;99.90
30280;DHT22;17097;50.916;5.344;2022-12-18T12:34:19;3.00;99.90
30280;DHT22;17097;50.916;5.344;2022-12-18T12:39:22;2.80;99.90
30280;DHT22;17097;50.916;5.344;2022-12-18T12:41:50;2.80;99.90
30280;DHT22;17097;50.916;5.344;2022-12-18T12:44:42;2.90;99.90
30280;DHT22;17097;50.916;5.344;2022-12-18T12:47:16;3.00;99.90
30280;DHT22;17097;50.916;5.344;2022-12-18T12:49:43;2.90;99.90
30280;DHT22;17097;50.916;5.344;2022-12-18T12:52:17;2.90;99.90
30280;DHT22;17097;50.916;5.344;2022-12-18T12:54:44;2.90;99.90
30280;DHT22;17097;50.916;5.344;2022-12-18T12:57:43;2.90;99.90
30280;DHT22;17097;50.916;5.344;2022-12-18T13:00:16;3.00;99.90
30280;DHT22;17097;50.916;5.344;2022-12-18T13:02:50;3.00;99.90
30280;DHT22;17097;50.916;5.344;2022-12-18T13:10:35;2.80;99.90
30280;DHT22;17097;50.916;5.344;2022-12-18T13:13:14;2.80;99.90
30280;DHT22;17097;50.916;5.344;2022-12-18T13:15:46;2.90;99.90
30280;DHT22;17097;50.916;5.344;2022-12-18T13:20:46;3.10;99.90
30280;DHT22;17097;50.916;5.344;2022-12-18T13:25:51;3.20;99.90
30280;DHT22;17097;50.916;5.344;2022-12-18T13:28:49;3.20;99.90
30280;DHT22;17097;50.916;5.344;2022-12-18T13:31:07;3.20;99.90
30280;DHT22;17097;50.916;5.344;2022-12-18T13:33:42;3.30;99.90
30280;DHT22;17097;50.916;5.344;2022-12-18T13:36:28;3.40;99.90
30280;DHT22;17097;50.916;5.344;2022-12-18T13:41:35;3.50;99.90
30280;DHT22;17097;50.916;5.344;2022-12-18T13:44:33;3.30;99.90
30280;DHT22;17097;50.916;5.344;2022-12-18T13:47:02;3.20;99.90
30280;DHT22;17097;50.916;5.344;2022-12-18T13:49:43;3.30;99.90
30280;DHT22;17097;50.916;5.344;2022-12-18T13:52:18;3.40;99.90
30280;DHT22;17097;50.916;5.344;2022-12-18T13:54:49;3.60;99.90
30280;DHT22;17097;50.916;5.344;2022-12-18T13:57:34;3.50;99.90
30280;DHT22;17097;50.916;5.344;2022-12-18T14:02:48;3.70;99.90
30280;DHT22;17097;50.916;5.344;2022-12-18T14:07:59;3.50;99.90
30280;DHT22;17097;50.916;5.344;2022-12-18T14:10:26;3.50;99.90
30280;DHT22;17097;50.916;5.344;2022-12-18T14:12:51;3.40;99.90
30280;DHT22;17097;50.916;5.344;2022-12-18T14:17:55;3.50;99.90
30280;DHT22;17097;50.916;5.344;2022-12-18T14:20:24;3.40;99.90
30280;DHT22;17097;50.916;5.344;2022-12-18T14:22:53;3.50;99.90
30280;DHT22;17097;50.916;5.344;2022-12-18T14:25:22;3.50;99.90
30280;DHT22;17097;50.916;5.344;2022-12-18T14:30:30;3.30;99.90
30280;DHT22;17097;50.916;5.344;2022-12-18T14:35:52;3.10;99.90
30280;DHT22;17097;50.916;5.344;2022-12-18T14:38:26;3.00;99.90
30280;DHT22;17097;50.916;5.344;2022-12-18T14:41:01;3.00;99.90
30280;DHT22;17097;50.916;5.344;2022-12-18T14:43:32;3.10;99.90
30280;DHT22;17097;50.916;5.344;2022-12-18T14:46:00;3.10;99.90
30280;DHT22;17097;50.916;5.344;2022-12-18T14:48:42;3.10;99.90
30280;DHT22;17097;50.916;5.344;2022-12-18T14:51:17;3.10;99.90
30280;DHT22;17097;50.916;5.344;2022-12-18T14:53:46;3.30;99.90
30280;DHT22;17097;50.916;5.344;2022-12-18T14:56:22;3.30;99.90
30280;DHT22;17097;50.916;5.344;2022-12-18T14:59:03;3.30;99.90
30280;DHT22;17097;50.916;5.344;2022-12-18T15:01:38;3.20;99.90
30280;DHT22;17097;50.916;5.344;2022-12-18T15:04:25;3.20;99.90
30280;DHT22;17097;50.916;5.344;2022-12-18T15:07:12;3.20;99.90
30280;DHT22;17097;50.916;5.344;2022-12-18T15:09:40;3.20;99.90
30280;DHT22;17097;50.916;5.344;2022-12-18T15:12:22;3.20;99.90
30280;DHT22;17097;50.916;5.344;2022-12-18T15:14:49;3.10;99.90
30280;DHT22;17097;50.916;5.344;2022-12-18T15:17:22;3.00;99.90
30280;DHT22;17097;50.916;5.344;2022-12-18T15:19:52;3.00;99.90
30280;DHT22;17097;50.916;5.344;2022-12-18T15:24:54;3.00;99.90
30280;DHT22;17097;50.916;5.344;2022-12-18T15:27:34;2.80;99.90
30280;DHT22;17097;50.916;5.344;2022-12-18T15:32:33;2.90;99.90
30280;DHT22;17097;50.916;5.344;2022-12-18T15:35:19;2.80;99.90
30280;DHT22;17097;50.916;5.344;2022-12-18T15:37:48;2.70;99.90
30280;DHT22;17097;50.916;5.344;2022-12-18T15:40:19;2.70;99.90
30280;DHT22;17097;50.916;5.344;2022-12-18T15:42:46;2.70;99.90
30280;DHT22;17097;50.916;5.344;2022-12-18T15:45:31;2.90;99.90
30280;DHT22;17097;50.916;5.344;2022-12-18T15:47:57;2.90;99.90
30280;DHT22;17097;50.916;5.344;2022-12-18T15:50:23;3.10;99.90
30280;DHT22;17097;50.916;5.344;2022-12-18T15:52:51;3.10;99.90
30280;DHT22;17097;50.916;5.344;2022-12-18T15:55:24;2.80;99.90
30280;DHT22;17097;50.916;5.344;2022-12-18T15:58:09;2.70;99.90
30280;DHT22;17097;50.916;5.344;2022-12-18T16:00:37;2.70;99.90
30280;DHT22;17097;50.916;5.344;2022-12-18T16:03:04;2.70;99.90
30280;DHT22;17097;50.916;5.344;2022-12-18T16:05:31;2.80;99.90
30280;DHT22;17097;50.916;5.344;2022-12-18T16:07:57;2.80;99.90
30280;DHT22;17097;50.916;5.344;2022-12-18T16:10:24;2.80;99.90
30280;DHT22;17097;50.916;5.344;2022-12-18T16:12:50;2.80;99.90
30280;DHT22;17097;50.916;5.344;2022-12-18T16:15:16;2.80;99.90
30280;DHT22;17097;50.916;5.344;2022-12-18T16:17:43;3.00;99.90
30280;DHT22;17097;50.916;5.344;2022-12-18T16:20:17;3.10;99.90
30280;DHT22;17097;50.916;5.344;2022-12-18T16:22:44;3.20;99.90
30280;DHT22;17097;50.916;5.344;2022-12-18T16:25:25;3.20;99.90
30280;DHT22;17097;50.916;5.344;2022-12-18T16:27:53;3.20;99.90
30280;DHT22;17097;50.916;5.344;2022-12-18T16:30:23;3.20;99.90
30280;DHT22;17097;50.916;5.344;2022-12-18T16:32:49;3.10;99.90
30280;DHT22;17097;50.916;5.344;2022-12-18T16:35:17;3.10;99.90
30280;DHT22;17097;50.916;5.344;2022-12-18T16:37:43;3.00;99.90
30280;DHT22;17097;50.916;5.344;2022-12-18T16:40:12;2.90;99.90
30280;DHT22;17097;50.916;5.344;2022-12-18T16:42:39;3.10;99.90
30280;DHT22;17097;50.916;5.344;2022-12-18T16:45:07;3.20;99.90
30280;DHT22;17097;50.916;5.344;2022-12-18T16:47:33;3.30;99.90
30280;DHT22;17097;50.916;5.344;2022-12-18T16:49:59;3.40;99.90
30280;DHT22;17097;50.916;5.344;2022-12-18T16:52:25;3.30;99.90
30280;DHT22;17097;50.916;5.344;2022-12-18T16:54:50;3.30;99.90
30280;DHT22;17097;50.916;5.344;2022-12-18T16:57:18;3.30;99.90
30280;DHT22;17097;50.916;5.344;2022-12-18T16:59:44;3.40;99.90
30280;DHT22;17097;50.916;5.344;2022-12-18T17:02:13;3.40;99.90
30280;DHT22;17097;50.916;5.344;2022-12-18T17:04:40;3.30;99.90
30280;DHT22;17097;50.916;5.344;2022-12-18T17:07:08;3.20;99.90
30280;DHT22;17097;50.916;5.344;2022-12-18T17:09:34;3.20;99.90
30280;DHT22;17097;50.916;5.344;2022-12-18T17:12:00;3.30;99.90
30280;DHT22;17097;50.916;5.344;2022-12-18T17:14:26;3.30;99.90
30280;DHT22;17097;50.916;5.344;2022-12-18T17:16:54;3.40;99.90
30280;DHT22;17097;50.916;5.344;2022-12-18T17:19:22;3.40;99.90
30280;DHT22;17097;50.916;5.344;2022-12-18T17:21:49;3.30;99.90
30280;DHT22;17097;50.916;5.344;2022-12-18T17:24:16;3.30;99.90
30280;DHT22;17097;50.916;5.344;2022-12-18T17:26:42;3.30;99.90
30280;DHT22;17097;50.916;5.344;2022-12-18T17:29:13;3.20;99.90
30280;DHT22;17097;50.916;5.344;2022-12-18T17:31:39;3.30;99.90
30280;DHT22;17097;50.916;5.344;2022-12-18T17:34:05;3.30;99.90
30280;DHT22;17097;50.916;5.344;2022-12-18T17:36:31;3.40;99.90
30280;DHT22;17097;50.916;5.344;2022-12-18T17:38:59;3.40;99.90
30280;DHT22;17097;50.916;5.344;2022-12-18T17:41:26;3.40;99.90
30280;DHT22;17097;50.916;5.344;2022-12-18T17:43:57;3.40;99.90
30280;DHT22;17097;50.916;5.344;2022-12-18T17:46:23;3.50;99.90
30280;DHT22;17097;50.916;5.344;2022-12-18T17:48:54;3.50;99.90
30280;DHT22;17097;50.916;5.344;2022-12-18T17:51:20;3.50;99.90
30280;DHT22;17097;50.916;5.344;2022-12-18T17:53:47;3.40;99.90
30280;DHT22;17097;50.916;5.344;2022-12-18T17:56:16;3.30;99.90